createdAt,value
2022-09-06T00:01:31.143Z,78.00
2022-09-06T00:06:33.517Z,78.80
2022-09-06T00:11:36.682Z,79.30
2022-09-06T00:16:40.723Z,79.80
2022-09-06T00:21:43.083Z,80.00
2022-09-06T00:26:45.467Z,80.50
2022-09-06T00:31:47.945Z,81.30
2022-09-06T00:36:50.328Z,82.10
2022-09-06T00:41:52.944Z,82.40
2022-09-06T00:46:56.087Z,82.70
2022-09-06T00:52:03.408Z,83.20
2022-09-06T00:57:06.103Z,83.90
2022-09-06T01:02:09.701Z,83.80
2022-09-06T01:07:35.414Z,84.70
2022-09-06T01:13:10.061Z,85.10
2022-09-06T01:18:15.343Z,86.20
2022-09-06T01:23:38.954Z,86.40
2022-09-06T01:28:48.606Z,86.80
2022-09-06T01:34:06.171Z,87.10
2022-09-06T01:39:14.388Z,87.40
2022-09-06T01:44:16.946Z,88.00
2022-09-06T01:49:34.215Z,88.40
2022-09-06T01:55:04.846Z,88.40
2022-09-06T02:00:13.501Z,88.40
2022-09-06T02:05:28.523Z,88.80
2022-09-06T02:10:36.830Z,89.00
2022-09-06T02:15:44.771Z,89.00
2022-09-06T02:20:51.543Z,89.60
2022-09-06T02:26:00.296Z,89.70
2022-09-06T02:31:08.701Z,89.70
2022-09-06T02:36:11.328Z,89.50
2022-09-06T02:41:18.513Z,90.00
2022-09-06T02:46:21.053Z,90.00
2022-09-06T02:51:23.950Z,90.10
2022-09-06T02:56:26.313Z,90.10
2022-09-06T03:01:28.839Z,90.00
2022-09-06T03:06:31.819Z,90.10
2022-09-06T03:11:34.181Z,90.10
2022-09-06T03:16:38.554Z,90.40
2022-09-06T03:21:41.026Z,90.70
2022-09-06T03:26:44.283Z,90.80
2022-09-06T03:31:46.683Z,91.00
2022-09-06T03:36:49.214Z,91.20
2022-09-06T03:41:51.696Z,91.00
2022-09-06T03:46:54.171Z,91.10
2022-09-06T03:51:57.026Z,91.10
2022-09-06T03:56:59.439Z,91.10
2022-09-06T04:02:02.300Z,91.00
2022-09-06T04:07:04.839Z,91.20
2022-09-06T04:12:07.337Z,91.30
2022-09-06T04:17:10.054Z,91.70
2022-09-06T04:22:12.475Z,91.90
2022-09-06T04:27:14.861Z,91.90
2022-09-06T04:32:17.241Z,92.30
2022-09-06T04:37:20.160Z,92.60
2022-09-06T04:42:22.578Z,92.70
2022-09-06T04:47:25.906Z,92.70
2022-09-06T04:52:30.331Z,92.80
2022-09-06T04:57:32.970Z,92.80
2022-09-06T05:02:35.558Z,92.70
2022-09-06T05:07:37.965Z,92.60
2022-09-06T05:12:44.105Z,92.40
2022-09-06T05:17:46.952Z,92.40
2022-09-06T05:22:53.824Z,92.40
2022-09-06T05:27:56.260Z,92.50
2022-09-06T05:32:58.763Z,91.80
2022-09-06T05:38:01.171Z,91.70
2022-09-06T05:43:03.558Z,91.40
2022-09-06T05:48:06.045Z,91.00
2022-09-06T05:53:08.496Z,90.60
2022-09-06T05:58:10.967Z,90.70
2022-09-06T06:03:13.375Z,90.80
2022-09-06T06:08:15.763Z,90.80
2022-09-06T06:13:18.177Z,90.50
2022-09-06T06:18:20.586Z,90.40
2022-09-06T06:23:23.028Z,90.40
2022-09-06T06:28:25.748Z,90.30
2022-09-06T06:33:28.208Z,90.00
2022-09-06T06:38:37.960Z,90.20
2022-09-06T06:43:40.668Z,90.10
2022-09-06T06:48:44.613Z,90.60
2022-09-06T06:53:48.247Z,89.60
2022-09-06T06:58:53.905Z,89.50
2022-09-06T07:03:56.786Z,88.40
2022-09-06T07:08:59.678Z,88.60
2022-09-06T07:14:02.084Z,85.50
2022-09-06T07:19:04.756Z,84.60
2022-09-06T07:24:10.552Z,85.90
2022-09-06T07:29:13.489Z,83.50
2022-09-06T07:34:17.758Z,84.00
2022-09-06T07:39:20.580Z,85.10
2022-09-06T07:44:23.049Z,85.60
2022-09-06T07:49:25.608Z,85.00
2022-09-06T07:54:31.052Z,84.20
2022-09-06T07:59:33.851Z,83.90
2022-09-06T08:04:36.308Z,82.80
2022-09-06T08:09:38.704Z,80.40
2022-09-06T08:14:41.147Z,80.10
2022-09-06T08:19:43.540Z,79.60
2022-09-06T08:24:45.923Z,78.80
2022-09-06T08:29:48.364Z,76.40
2022-09-06T08:34:50.840Z,76.90
2022-09-06T08:39:53.329Z,75.50
2022-09-06T08:44:58.737Z,72.90
2022-09-06T08:50:04.630Z,69.90
2022-09-06T08:55:13.439Z,69.00
2022-09-06T09:00:15.956Z,63.90
2022-09-06T09:05:41.563Z,64.10
2022-09-06T09:10:48.595Z,60.30
2022-09-06T09:15:51.166Z,59.90
2022-09-06T09:20:53.656Z,59.90
2022-09-06T09:26:00.984Z,58.70
2022-09-06T09:31:04.196Z,57.10
2022-09-06T09:36:10.371Z,57.60
2022-09-06T09:41:31.803Z,57.60
2022-09-06T09:46:36.494Z,57.40
2022-09-06T09:51:44.959Z,55.70
2022-09-06T09:56:49.575Z,55.10
2022-09-06T10:01:55.802Z,52.70
2022-09-06T10:07:10.168Z,52.70
2022-09-06T10:12:29.290Z,51.80
2022-09-06T10:17:35.931Z,51.30
2022-09-06T10:23:08.713Z,51.20
2022-09-06T10:28:29.789Z,49.30
2022-09-06T10:34:10.026Z,49.70
2022-09-06T10:39:32.708Z,47.70
2022-09-06T10:44:45.656Z,47.30
2022-09-06T10:49:55.183Z,46.90
2022-09-06T10:55:04.157Z,46.30
2022-09-06T11:00:16.742Z,44.00
2022-09-06T11:05:39.407Z,44.70
2022-09-06T11:10:45.550Z,44.10
2022-09-06T11:16:06.707Z,42.80
2022-09-06T11:21:31.071Z,42.70
2022-09-06T11:26:43.697Z,43.20
2022-09-06T11:37:27.228Z,40.90
2022-09-06T11:43:01.057Z,40.50
2022-09-06T11:48:34.685Z,41.00
2022-09-06T11:53:48.977Z,39.00
2022-09-06T11:58:57.522Z,39.40
2022-09-06T12:09:29.548Z,37.50
2022-09-06T12:14:41.280Z,38.50
2022-09-06T12:19:54.206Z,39.30
2022-09-06T12:25:16.588Z,38.50
2022-09-06T12:30:39.091Z,38.10
2022-09-06T12:35:57.225Z,38.60
2022-09-06T12:41:01.255Z,37.90
2022-09-06T12:46:07.877Z,38.70
2022-09-06T12:51:19.583Z,39.30
2022-09-06T12:56:24.339Z,37.40
2022-09-06T13:01:32.999Z,38.00
2022-09-06T13:06:40.935Z,36.00
2022-09-06T13:11:46.435Z,35.60
2022-09-06T13:16:51.633Z,36.40
2022-09-06T13:21:54.007Z,37.80
2022-09-06T13:26:56.436Z,38.00
2022-09-06T13:32:01.927Z,37.30
2022-09-06T13:37:07.885Z,37.30
2022-09-06T13:42:33.518Z,36.10
2022-09-06T13:47:36.055Z,36.00
2022-09-06T13:52:38.531Z,33.30
2022-09-06T13:57:41.175Z,32.70
2022-09-06T14:02:49.848Z,32.70
2022-09-06T14:07:52.703Z,33.60
2022-09-06T14:12:55.178Z,32.40
2022-09-06T14:17:57.672Z,33.30
2022-09-06T14:23:00.114Z,33.90
2022-09-06T14:28:03.867Z,36.20
2022-09-06T14:33:06.318Z,36.60
2022-09-06T14:38:08.829Z,38.00
2022-09-06T14:43:11.583Z,38.20
2022-09-06T14:48:14.099Z,39.40
2022-09-06T14:53:38.817Z,39.90
2022-09-06T14:58:40.847Z,40.20
2022-09-06T15:03:51.445Z,40.30
2022-09-06T15:08:58.560Z,40.70
2022-09-06T15:14:04.073Z,40.50
2022-09-06T15:19:07.877Z,40.40
2022-09-06T15:24:12.166Z,41.00
2022-09-06T15:29:15.689Z,40.50
2022-09-06T15:34:20.238Z,40.50
2022-09-06T15:39:22.758Z,41.30
2022-09-06T15:44:25.413Z,42.70
2022-09-06T15:49:34.719Z,42.70
2022-09-06T15:54:55.902Z,43.60
2022-09-06T15:59:58.369Z,44.40
2022-09-06T16:05:01.160Z,44.40
2022-09-06T16:10:04.007Z,44.50
2022-09-06T16:15:07.146Z,45.10
2022-09-06T16:20:10.256Z,45.80
2022-09-06T16:25:12.640Z,46.10
2022-09-06T16:30:15.081Z,46.50
2022-09-06T16:35:17.856Z,47.10
2022-09-06T16:40:20.273Z,47.80
2022-09-06T16:45:22.698Z,47.90
2022-09-06T16:50:25.320Z,48.60
2022-09-06T16:55:27.669Z,49.70
2022-09-06T17:00:30.093Z,50.80
2022-09-06T17:05:35.423Z,51.20
2022-09-06T17:10:39.760Z,51.70
2022-09-06T17:16:00.989Z,52.60
2022-09-06T17:21:06.179Z,53.80
2022-09-06T17:26:08.811Z,54.90
2022-09-06T17:31:11.375Z,55.50
2022-09-06T17:36:17.749Z,57.70
2022-09-06T17:41:25.679Z,57.90
2022-09-06T17:46:29.209Z,58.30
2022-09-06T17:51:32.340Z,58.80
2022-09-06T17:56:35.194Z,58.20
2022-09-06T18:01:40.470Z,58.10
2022-09-06T18:06:46.338Z,59.50
2022-09-06T18:11:49.234Z,59.10
2022-09-06T18:16:52.229Z,60.00
2022-09-06T18:21:57.138Z,59.50
2022-09-06T18:26:59.758Z,59.30
2022-09-06T18:32:02.489Z,59.20
2022-09-06T18:37:05.810Z,59.50
2022-09-06T18:42:11.326Z,59.50
2022-09-06T18:47:13.750Z,60.00
2022-09-06T18:52:16.413Z,59.70
2022-09-06T18:57:18.822Z,59.70
2022-09-06T19:02:23.553Z,59.80
2022-09-06T19:07:28.550Z,60.10
2022-09-06T19:12:33.384Z,59.80
2022-09-06T19:17:35.774Z,59.90
2022-09-06T19:22:38.393Z,59.90
2022-09-06T19:27:40.771Z,60.00
2022-09-06T19:32:43.231Z,60.10
2022-09-06T19:37:45.718Z,60.30
2022-09-06T19:42:48.151Z,60.50
2022-09-06T19:47:50.544Z,60.70
2022-09-06T19:52:53.102Z,60.80
2022-09-06T19:57:55.522Z,60.60
2022-09-06T20:02:58.085Z,60.70
2022-09-06T20:08:00.744Z,61.10
2022-09-06T20:13:03.651Z,61.30
2022-09-06T20:18:06.086Z,62.30
2022-09-06T20:23:10.162Z,61.80
2022-09-06T20:28:12.573Z,62.30
2022-09-06T20:33:16.190Z,62.60
2022-09-06T20:38:18.893Z,63.00
2022-09-06T20:43:21.368Z,63.40
2022-09-06T20:48:23.858Z,63.40
2022-09-06T20:53:26.567Z,63.60
2022-09-06T20:58:30.241Z,64.00
2022-09-06T21:03:35.907Z,64.30
2022-09-06T21:08:42.550Z,65.00
2022-09-06T21:13:51.497Z,65.30
2022-09-06T21:18:59.071Z,66.00
2022-09-06T21:24:02.880Z,66.20
2022-09-06T21:29:05.633Z,67.00
2022-09-06T21:34:16.198Z,67.60
2022-09-06T21:39:19.257Z,68.00
2022-09-06T21:44:21.797Z,68.20
2022-09-06T21:49:24.178Z,68.90
2022-09-06T21:54:28.996Z,69.10
2022-09-06T21:59:31.513Z,69.60
2022-09-06T22:04:34.020Z,69.40
2022-09-06T22:09:36.471Z,70.10
2022-09-06T22:14:39.440Z,70.80
2022-09-06T22:19:42.017Z,71.00
2022-09-06T22:24:44.512Z,71.10
2022-09-06T22:29:46.983Z,71.60
2022-09-06T22:34:49.657Z,72.40
2022-09-06T22:39:52.291Z,73.20
2022-09-06T22:44:54.743Z,73.90
2022-09-06T22:49:57.158Z,74.10
2022-09-06T22:54:59.546Z,74.00
2022-09-06T23:00:02.389Z,74.20
2022-09-06T23:05:05.107Z,73.90
2022-09-06T23:10:07.919Z,74.00
2022-09-06T23:15:10.704Z,74.00
2022-09-06T23:20:14.226Z,74.30
2022-09-06T23:25:16.755Z,75.10
2022-09-06T23:30:19.322Z,75.80
2022-09-06T23:35:22.309Z,74.20
2022-09-06T23:40:24.859Z,74.00
2022-09-06T23:45:27.408Z,74.00
2022-09-06T23:50:29.835Z,73.80
2022-09-06T23:55:32.250Z,74.00
